createdAt,value
2019-03-25T00:00:43.219Z,5.00
2019-03-25T00:01:43.203Z,5.30
2019-03-25T00:02:43.191Z,5.00
2019-03-25T00:03:43.207Z,5.70
2019-03-25T00:04:43.198Z,5.50
2019-03-25T00:05:43.166Z,5.30
2019-03-25T00:06:43.164Z,5.20
2019-03-25T00:07:43.138Z,5.00
2019-03-25T00:08:43.128Z,4.80
2019-03-25T00:09:43.142Z,4.70
2019-03-25T00:10:43.127Z,4.90
2019-03-25T00:11:43.104Z,5.00
2019-03-25T00:12:43.100Z,5.10
2019-03-25T00:13:43.076Z,5.00
2019-03-25T00:14:43.088Z,5.00
2019-03-25T00:15:43.098Z,5.00
2019-03-25T00:16:43.059Z,4.80
2019-03-25T00:17:43.047Z,5.20
2019-03-25T00:18:43.034Z,4.50
2019-03-25T00:19:43.018Z,4.90
2019-03-25T00:20:43.002Z,4.80
2019-03-25T00:21:43.019Z,5.00
2019-03-25T00:22:42.988Z,4.80
2019-03-25T00:23:42.979Z,4.50
2019-03-25T00:24:42.967Z,4.70
2019-03-25T00:25:42.983Z,4.80
2019-03-25T00:26:42.944Z,5.00
2019-03-25T00:27:42.938Z,4.60
2019-03-25T00:28:42.934Z,4.50
2019-03-25T00:29:42.914Z,4.90
2019-03-25T00:30:42.907Z,4.40
2019-03-25T00:31:42.906Z,4.90
2019-03-25T00:32:42.922Z,4.60
2019-03-25T00:33:42.870Z,4.80
2019-03-25T00:34:42.859Z,4.60
2019-03-25T00:35:42.851Z,4.30
2019-03-25T00:36:42.868Z,4.70
2019-03-25T00:37:42.832Z,4.60
2019-03-25T00:38:42.823Z,4.90
2019-03-25T00:39:42.810Z,4.50
2019-03-25T00:40:42.793Z,4.20
2019-03-25T00:41:42.803Z,4.20
2019-03-25T00:42:42.773Z,4.60
2019-03-25T00:43:42.794Z,4.40
2019-03-25T00:44:42.762Z,4.70
2019-03-25T00:45:42.747Z,4.40
2019-03-25T00:46:42.730Z,4.60
2019-03-25T00:47:42.755Z,4.80
2019-03-25T00:48:42.717Z,4.80
2019-03-25T00:49:42.707Z,4.80
2019-03-25T00:50:42.700Z,4.60
2019-03-25T00:51:42.695Z,4.50
2019-03-25T00:52:42.668Z,4.30
2019-03-25T00:53:42.678Z,4.60
2019-03-25T00:54:49.988Z,4.20
2019-03-25T00:55:43.641Z,4.50
2019-03-25T00:56:42.639Z,4.40
2019-03-25T00:57:42.620Z,4.10
2019-03-25T00:58:42.616Z,4.60
2019-03-25T00:59:42.624Z,4.30
2019-03-25T01:00:42.582Z,3.90
2019-03-25T01:01:42.581Z,3.70
2019-03-25T01:02:42.568Z,4.00
2019-03-25T01:03:42.556Z,4.00
2019-03-25T01:04:42.549Z,3.40
2019-03-25T01:05:42.558Z,3.70
2019-03-25T01:06:42.535Z,3.70
2019-03-25T01:07:42.518Z,3.90
2019-03-25T01:08:42.540Z,4.30
2019-03-25T01:09:42.499Z,3.70
2019-03-25T01:10:42.489Z,3.80
2019-03-25T01:11:49.099Z,3.60
2019-03-25T01:12:43.462Z,3.90
2019-03-25T01:13:42.455Z,3.90
2019-03-25T01:14:42.463Z,3.90
2019-03-25T01:15:42.437Z,3.60
2019-03-25T01:16:42.422Z,3.90
2019-03-25T01:17:42.442Z,3.70
2019-03-25T01:18:42.399Z,3.80
2019-03-25T01:19:42.394Z,4.30
2019-03-25T01:20:42.390Z,3.70
2019-03-25T01:21:42.374Z,3.90
2019-03-25T01:22:42.361Z,3.60
2019-03-25T01:23:42.378Z,3.90
2019-03-25T01:24:42.331Z,3.40
2019-03-25T01:25:42.323Z,3.90
2019-03-25T01:26:42.311Z,3.70
2019-03-25T01:27:42.366Z,3.50
2019-03-25T01:28:42.327Z,3.50
2019-03-25T01:29:42.290Z,3.80
2019-03-25T01:30:42.288Z,3.60
2019-03-25T01:31:42.259Z,3.40
2019-03-25T01:32:42.249Z,3.60
2019-03-25T01:33:42.258Z,3.50
2019-03-25T01:34:42.278Z,3.90
2019-03-25T01:35:42.218Z,3.80
2019-03-25T01:36:42.206Z,3.70
2019-03-25T01:37:42.217Z,4.00
2019-03-25T01:38:42.186Z,3.90
2019-03-25T01:39:42.201Z,3.50
2019-03-25T01:40:42.181Z,3.50
2019-03-25T01:41:42.182Z,3.60
2019-03-25T01:42:42.154Z,3.80
2019-03-25T01:43:42.133Z,3.80
2019-03-25T01:44:42.120Z,3.80
2019-03-25T01:45:42.147Z,3.80
2019-03-25T01:46:42.100Z,3.70
2019-03-25T01:47:42.103Z,3.90
2019-03-25T01:48:42.090Z,3.90
2019-03-25T01:49:42.075Z,3.90
2019-03-25T01:50:42.059Z,3.80
2019-03-25T01:51:42.089Z,3.90
2019-03-25T01:52:42.042Z,3.40
2019-03-25T01:53:42.037Z,3.70
2019-03-25T01:54:42.026Z,3.90
2019-03-25T01:55:42.010Z,3.80
2019-03-25T01:56:41.998Z,3.60
2019-03-25T01:57:42.018Z,4.20
2019-03-25T01:58:41.975Z,4.00
2019-03-25T01:59:41.983Z,3.70
2019-03-25T02:00:41.961Z,3.50
2019-03-25T02:01:41.952Z,3.90
2019-03-25T02:02:41.943Z,4.10
2019-03-25T02:03:41.947Z,3.90
2019-03-25T02:04:41.912Z,3.70
2019-03-25T02:05:41.915Z,3.50
2019-03-25T02:06:41.899Z,4.10
2019-03-25T02:07:41.908Z,4.00
2019-03-25T02:08:41.871Z,4.00
2019-03-25T02:09:41.865Z,4.00
2019-03-25T02:10:41.853Z,4.60
2019-03-25T02:11:41.850Z,3.80
2019-03-25T02:12:41.834Z,4.10
2019-03-25T02:13:41.844Z,3.80
2019-03-25T02:14:41.829Z,3.60
2019-03-25T02:15:41.807Z,3.80
2019-03-25T02:16:41.792Z,3.50
2019-03-25T02:17:41.782Z,3.80
2019-03-25T02:18:41.807Z,3.60
2019-03-25T02:19:41.768Z,3.70
2019-03-25T02:20:41.768Z,3.70
2019-03-25T02:21:41.746Z,3.80
2019-03-25T02:22:41.948Z,4.10
2019-03-25T02:23:41.723Z,3.40
2019-03-25T02:24:41.728Z,3.80
2019-03-25T02:25:41.699Z,3.60
2019-03-25T02:26:41.690Z,3.80
2019-03-25T02:27:41.675Z,3.60
2019-03-25T02:28:41.668Z,3.90
2019-03-25T02:29:41.684Z,3.90
2019-03-25T02:30:41.645Z,4.00
2019-03-25T02:31:41.642Z,3.70
2019-03-25T02:32:41.630Z,3.80
2019-03-25T02:33:41.621Z,3.60
2019-03-25T02:34:41.611Z,3.60
2019-03-25T02:35:41.618Z,3.50
2019-03-25T02:36:41.585Z,3.50
2019-03-25T02:37:41.576Z,3.80
2019-03-25T02:38:41.567Z,3.50
2019-03-25T02:39:41.551Z,3.70
2019-03-25T02:40:41.560Z,3.80
2019-03-25T02:41:41.527Z,3.70
2019-03-25T02:42:41.530Z,3.80
2019-03-25T02:43:41.517Z,3.60
2019-03-25T02:44:41.515Z,3.70
2019-03-25T02:45:41.530Z,3.80
2019-03-25T02:46:41.486Z,3.80
2019-03-25T02:47:41.477Z,3.50
2019-03-25T02:48:41.465Z,3.40
2019-03-25T02:49:41.459Z,3.70
2019-03-25T02:50:41.440Z,3.60
2019-03-25T02:51:41.456Z,3.50
2019-03-25T02:52:41.419Z,3.60
2019-03-25T02:53:41.403Z,3.90
2019-03-25T02:54:41.393Z,3.90
2019-03-25T02:55:42.560Z,3.90
2019-03-25T02:56:41.401Z,3.40
2019-03-25T02:57:41.368Z,3.80
2019-03-25T02:58:41.363Z,3.90
2019-03-25T02:59:41.358Z,4.00
2019-03-25T03:00:41.329Z,3.60
2019-03-25T03:01:41.320Z,3.40
2019-03-25T03:02:41.312Z,3.80
2019-03-25T03:03:41.322Z,3.80
2019-03-25T03:04:41.301Z,3.80
2019-03-25T03:05:41.290Z,3.90
2019-03-25T03:06:41.276Z,3.70
2019-03-25T03:07:41.258Z,3.80
2019-03-25T03:08:41.276Z,3.50
2019-03-25T03:09:41.247Z,3.70
2019-03-25T03:10:41.238Z,3.80
2019-03-25T03:11:41.217Z,3.70
2019-03-25T03:12:41.213Z,3.40
2019-03-25T03:13:41.207Z,3.80
2019-03-25T03:14:41.200Z,3.80
2019-03-25T03:15:41.211Z,4.00
2019-03-25T03:16:41.168Z,3.80
2019-03-25T03:17:41.166Z,3.50
2019-03-25T03:18:41.150Z,3.80
2019-03-25T03:19:41.132Z,4.20
2019-03-25T03:20:41.128Z,3.70
2019-03-25T03:21:41.151Z,3.40
2019-03-25T03:22:41.099Z,3.20
2019-03-25T03:23:41.120Z,3.50
2019-03-25T03:24:41.109Z,3.40
2019-03-25T03:25:55.673Z,3.60
2019-03-25T03:26:42.094Z,3.50
2019-03-25T03:27:41.086Z,3.70
2019-03-25T03:28:41.050Z,3.80
2019-03-25T03:29:41.044Z,3.60
2019-03-25T03:30:41.041Z,3.20
2019-03-25T03:31:41.012Z,3.60
2019-03-25T03:32:41.033Z,3.50
2019-03-25T03:33:40.989Z,4.00
2019-03-25T03:34:40.978Z,3.70
2019-03-25T03:35:40.976Z,3.40
2019-03-25T03:36:40.982Z,3.30
2019-03-25T03:37:40.955Z,3.30
2019-03-25T03:38:40.962Z,3.50
2019-03-25T03:39:40.934Z,3.70
2019-03-25T03:40:40.918Z,3.50
2019-03-25T03:41:40.924Z,3.80
2019-03-25T03:42:40.898Z,3.60
2019-03-25T03:43:40.904Z,3.50
2019-03-25T03:44:40.878Z,3.70
2019-03-25T03:45:40.860Z,3.70
2019-03-25T03:46:40.854Z,3.60
2019-03-25T03:47:40.868Z,3.60
2019-03-25T03:48:40.880Z,3.50
2019-03-25T03:49:40.830Z,3.90
2019-03-25T03:50:40.832Z,3.60
2019-03-25T03:51:40.798Z,3.90
2019-03-25T03:52:40.794Z,3.80
2019-03-25T03:53:40.780Z,3.70
2019-03-25T03:54:40.806Z,4.00
2019-03-25T03:55:40.770Z,3.50
2019-03-25T03:56:40.756Z,3.80
2019-03-25T03:57:40.745Z,3.60
2019-03-25T03:58:40.734Z,3.30
2019-03-25T03:59:40.728Z,3.80
2019-03-25T04:00:40.754Z,3.70
2019-03-25T04:01:40.701Z,3.40
2019-03-25T04:02:40.690Z,3.40
2019-03-25T04:03:40.676Z,3.70
2019-03-25T04:04:40.673Z,3.50
2019-03-25T04:05:40.655Z,3.60
2019-03-25T04:06:40.663Z,3.50
2019-03-25T04:07:40.648Z,4.10
2019-03-25T04:08:40.634Z,4.70
2019-03-25T04:09:40.640Z,3.70
2019-03-25T04:10:40.636Z,3.70
2019-03-25T04:11:40.608Z,3.70
2019-03-25T04:12:40.587Z,3.80
2019-03-25T04:13:40.580Z,3.80
2019-03-25T04:14:40.589Z,4.10
2019-03-25T04:15:40.553Z,3.70
2019-03-25T04:16:40.557Z,3.70
2019-03-25T04:17:40.548Z,4.10
2019-03-25T04:18:40.523Z,3.80
2019-03-25T04:19:40.521Z,3.80
2019-03-25T04:20:40.509Z,4.10
2019-03-25T04:21:40.512Z,3.90
2019-03-25T04:22:40.489Z,3.70
2019-03-25T04:23:40.467Z,3.50
2019-03-25T04:24:40.460Z,3.90
2019-03-25T04:25:40.458Z,3.80
2019-03-25T04:26:40.467Z,4.20
2019-03-25T04:27:40.436Z,3.90
2019-03-25T04:28:40.420Z,4.00
2019-03-25T04:29:40.408Z,3.70
2019-03-25T04:30:40.400Z,3.70
2019-03-25T04:31:40.391Z,3.80
2019-03-25T04:32:40.411Z,3.90
2019-03-25T04:33:40.373Z,3.90
2019-03-25T04:34:40.365Z,4.00
2019-03-25T04:35:40.341Z,3.90
2019-03-25T04:36:40.334Z,3.60
2019-03-25T04:37:40.321Z,4.10
2019-03-25T04:38:40.342Z,3.90
2019-03-25T04:39:40.320Z,3.80
2019-03-25T04:40:40.304Z,4.20
2019-03-25T04:41:40.302Z,4.10
2019-03-25T04:42:40.277Z,3.70
2019-03-25T04:43:40.283Z,3.80
2019-03-25T04:44:40.254Z,3.90
2019-03-25T04:45:40.243Z,3.90
2019-03-25T04:46:40.236Z,4.10
2019-03-25T04:47:40.216Z,4.00
2019-03-25T04:48:40.242Z,3.90
2019-03-25T04:49:40.194Z,3.50
2019-03-25T04:50:40.186Z,3.90
2019-03-25T04:51:40.192Z,3.70
2019-03-25T04:52:40.171Z,4.00
2019-03-25T04:53:40.187Z,4.00
2019-03-25T04:54:40.151Z,3.60
2019-03-25T04:55:40.134Z,4.00
2019-03-25T04:56:40.342Z,3.60
2019-03-25T04:57:40.126Z,4.20
2019-03-25T04:58:40.101Z,3.90
2019-03-25T04:59:40.119Z,3.70
2019-03-25T05:00:40.095Z,4.00
2019-03-25T05:01:40.073Z,3.70
2019-03-25T05:02:40.062Z,3.80
2019-03-25T05:03:40.059Z,3.70
2019-03-25T05:04:40.077Z,3.90
2019-03-25T05:05:40.035Z,3.70
2019-03-25T05:06:40.031Z,3.60
2019-03-25T05:07:40.008Z,3.60
2019-03-25T05:08:39.999Z,4.20
2019-03-25T05:09:39.988Z,3.50
2019-03-25T05:10:39.996Z,3.60
2019-03-25T05:11:39.975Z,4.00
2019-03-25T05:12:39.966Z,4.20
2019-03-25T05:13:39.951Z,3.70
2019-03-25T05:14:39.943Z,4.10
2019-03-25T05:15:39.955Z,4.00
2019-03-25T05:16:39.925Z,3.90
2019-03-25T05:17:39.914Z,3.80
2019-03-25T05:18:39.902Z,3.80
2019-03-25T05:19:39.885Z,3.80
2019-03-25T05:20:39.877Z,4.00
2019-03-25T05:21:39.894Z,4.20
2019-03-25T05:22:39.863Z,4.20
2019-03-25T05:23:39.846Z,4.20
2019-03-25T05:24:39.848Z,4.50
2019-03-25T05:25:39.829Z,4.50
2019-03-25T05:26:50.282Z,4.30
2019-03-25T05:27:40.799Z,4.10
2019-03-25T05:28:39.789Z,4.20
2019-03-25T05:29:39.788Z,4.70
2019-03-25T05:30:39.779Z,4.20
2019-03-25T05:31:39.768Z,4.50
2019-03-25T05:32:39.787Z,4.50
2019-03-25T05:33:39.739Z,3.90
2019-03-25T05:34:39.729Z,4.40
2019-03-25T05:35:39.726Z,4.20
2019-03-25T05:36:39.711Z,4.40
2019-03-25T05:37:39.723Z,4.60
2019-03-25T05:38:39.695Z,5.20
2019-03-25T05:39:39.673Z,4.80
2019-03-25T05:40:39.743Z,4.50
2019-03-25T05:41:39.655Z,4.40
2019-03-25T05:42:39.671Z,4.40
2019-03-25T05:43:39.641Z,4.70
2019-03-25T05:44:39.628Z,4.40
2019-03-25T05:45:39.618Z,4.10
2019-03-25T05:46:39.608Z,4.20
2019-03-25T05:47:39.594Z,4.30
2019-03-25T05:48:39.600Z,4.40
2019-03-25T05:49:39.579Z,4.40
2019-03-25T05:50:39.771Z,4.20
2019-03-25T05:51:39.551Z,4.60
2019-03-25T05:52:39.541Z,4.70
2019-03-25T05:53:39.558Z,4.40
2019-03-25T05:54:39.518Z,4.60
2019-03-25T05:55:40.869Z,4.10
2019-03-25T05:56:39.511Z,4.70
2019-03-25T05:57:39.489Z,4.90
2019-03-25T05:58:39.477Z,4.50
2019-03-25T05:59:39.500Z,4.70
2019-03-25T06:00:39.463Z,4.70
2019-03-25T06:01:39.453Z,5.30
2019-03-25T06:02:39.445Z,5.40
2019-03-25T06:03:39.423Z,5.30
2019-03-25T06:04:39.477Z,5.70
2019-03-25T06:05:39.406Z,5.30
2019-03-25T06:06:39.406Z,4.80
2019-03-25T06:07:39.382Z,4.90
2019-03-25T06:08:39.375Z,5.40
2019-03-25T06:09:39.385Z,5.40
2019-03-25T06:10:40.131Z,5.10
2019-03-25T06:11:39.350Z,5.30
2019-03-25T06:12:39.351Z,5.40
2019-03-25T06:13:39.344Z,5.50
2019-03-25T06:14:39.372Z,5.40
2019-03-25T06:15:39.304Z,5.40
2019-03-25T06:16:39.297Z,5.10
2019-03-25T06:17:39.292Z,5.50
2019-03-25T06:18:39.286Z,4.60
2019-03-25T06:19:39.299Z,5.10
2019-03-25T06:20:39.257Z,5.50
2019-03-25T06:21:39.270Z,5.70
2019-03-25T06:22:39.233Z,5.20
2019-03-25T06:23:39.226Z,5.50
2019-03-25T06:24:39.221Z,5.70
2019-03-25T06:25:39.201Z,5.10
2019-03-25T06:26:39.239Z,5.10
2019-03-25T06:27:39.185Z,5.50
2019-03-25T06:28:39.163Z,5.50
2019-03-25T06:29:39.169Z,5.40
2019-03-25T06:30:39.154Z,5.90
2019-03-25T06:31:39.176Z,6.00
2019-03-25T06:32:39.133Z,6.10
2019-03-25T06:33:39.135Z,5.90
2019-03-25T06:34:39.170Z,6.20
2019-03-25T06:35:39.095Z,5.70
2019-03-25T06:36:39.097Z,6.10
2019-03-25T06:37:39.107Z,5.80
2019-03-25T06:38:39.067Z,5.90
2019-03-25T06:39:39.066Z,5.90
2019-03-25T06:40:39.638Z,5.90
2019-03-25T06:41:39.029Z,5.30
2019-03-25T06:42:39.028Z,5.70
2019-03-25T06:43:39.031Z,5.80
2019-03-25T06:44:39.025Z,5.90
2019-03-25T06:45:39.002Z,6.00
2019-03-25T06:46:38.986Z,5.80
2019-03-25T06:47:38.966Z,5.60
2019-03-25T06:48:39.182Z,6.00
2019-03-25T06:49:38.970Z,5.90
2019-03-25T06:50:38.942Z,5.50
2019-03-25T06:51:38.941Z,5.90
2019-03-25T06:52:38.929Z,5.40
2019-03-25T06:53:38.917Z,5.60
2019-03-25T06:54:38.923Z,5.50
2019-03-25T06:55:38.899Z,6.20
2019-03-25T06:56:38.952Z,6.00
2019-03-25T06:57:39.056Z,5.80
2019-03-25T06:58:39.265Z,6.00
2019-03-25T06:59:38.853Z,5.70
2019-03-25T07:00:38.870Z,5.50
2019-03-25T07:01:38.826Z,5.40
2019-03-25T07:02:38.819Z,5.40
2019-03-25T07:03:38.818Z,5.40
2019-03-25T07:04:38.806Z,5.20
2019-03-25T07:05:38.808Z,5.30
2019-03-25T07:06:38.800Z,5.30
2019-03-25T07:07:38.775Z,5.60
2019-03-25T07:08:38.761Z,5.50
2019-03-25T07:09:38.769Z,5.10
2019-03-25T07:10:38.776Z,5.40
2019-03-25T07:11:38.730Z,5.70
2019-03-25T07:12:38.716Z,5.40
2019-03-25T07:13:38.701Z,5.20
2019-03-25T07:14:38.706Z,5.00
2019-03-25T07:15:38.692Z,6.00
2019-03-25T07:16:38.713Z,5.40
2019-03-25T07:17:38.675Z,5.40
2019-03-25T07:18:38.657Z,5.70
2019-03-25T07:19:38.638Z,5.70
2019-03-25T07:20:38.634Z,5.60
2019-03-25T07:21:38.639Z,5.60
2019-03-25T07:22:38.618Z,5.90
2019-03-25T07:23:38.625Z,5.70
2019-03-25T07:24:38.593Z,5.40
2019-03-25T07:25:38.585Z,5.30
2019-03-25T07:26:38.602Z,5.60
2019-03-25T07:27:38.569Z,5.90
2019-03-25T07:28:38.834Z,6.10
2019-03-25T07:29:38.543Z,5.60
2019-03-25T07:30:38.527Z,6.00
2019-03-25T07:31:38.541Z,5.40
2019-03-25T07:32:38.497Z,5.70
2019-03-25T07:33:38.489Z,5.50
2019-03-25T07:34:38.479Z,5.60
2019-03-25T07:35:38.514Z,5.80
2019-03-25T07:36:38.462Z,5.70
2019-03-25T07:37:38.454Z,5.90
2019-03-25T07:38:38.464Z,5.80
2019-03-25T07:39:38.440Z,5.40
2019-03-25T07:40:38.424Z,5.60
2019-03-25T07:41:38.409Z,5.50
2019-03-25T07:42:38.401Z,5.60
2019-03-25T07:43:38.407Z,5.70
2019-03-25T07:44:38.378Z,5.30
2019-03-25T07:45:38.378Z,5.40
2019-03-25T07:46:38.359Z,6.00
2019-03-25T07:47:38.351Z,6.00
2019-03-25T07:48:38.389Z,6.00
2019-03-25T07:49:38.356Z,6.00
2019-03-25T07:50:38.321Z,5.60
2019-03-25T07:51:38.367Z,6.00
2019-03-25T07:52:38.297Z,5.80
2019-03-25T07:53:38.296Z,5.50
2019-03-25T07:54:38.298Z,5.70
2019-03-25T07:55:38.268Z,6.00
2019-03-25T07:56:38.255Z,5.80
2019-03-25T07:57:47.648Z,5.90
2019-03-25T07:58:39.272Z,6.00
2019-03-25T07:59:38.225Z,6.20
2019-03-25T08:00:38.216Z,6.00
2019-03-25T08:01:38.224Z,5.70
2019-03-25T08:02:38.198Z,5.50
2019-03-25T08:03:38.213Z,6.00
2019-03-25T08:04:38.788Z,5.40
2019-03-25T08:05:38.167Z,5.50
2019-03-25T08:06:38.144Z,5.10
2019-03-25T08:07:38.179Z,5.40
2019-03-25T08:08:38.137Z,5.40
2019-03-25T08:09:38.131Z,5.60
2019-03-25T08:10:38.140Z,5.30
2019-03-25T08:11:38.105Z,5.40
2019-03-25T08:12:38.083Z,5.10
2019-03-25T08:13:38.078Z,5.00
2019-03-25T08:14:38.097Z,5.00
2019-03-25T08:15:38.080Z,5.30
2019-03-25T08:16:38.059Z,4.90
2019-03-25T08:17:38.029Z,4.80
2019-03-25T08:18:38.039Z,5.00
2019-03-25T08:19:38.015Z,5.10
2019-03-25T08:20:38.216Z,5.30
2019-03-25T08:21:37.992Z,4.90
2019-03-25T08:22:37.981Z,5.00
2019-03-25T08:23:37.968Z,5.20
2019-03-25T08:24:37.955Z,5.00
2019-03-25T08:25:37.948Z,4.80
2019-03-25T08:26:37.952Z,4.80
2019-03-25T08:27:37.930Z,4.70
2019-03-25T08:28:37.974Z,4.60
2019-03-25T08:29:37.904Z,5.00
2019-03-25T08:30:37.895Z,4.70
2019-03-25T08:31:37.913Z,4.80
2019-03-25T08:32:37.877Z,4.80
2019-03-25T08:33:37.871Z,4.80
2019-03-25T08:34:37.855Z,4.80
2019-03-25T08:35:37.841Z,4.90
2019-03-25T08:36:37.848Z,4.80
2019-03-25T08:37:37.824Z,4.90
2019-03-25T08:38:37.810Z,4.80
2019-03-25T08:39:37.806Z,4.90
2019-03-25T08:40:37.793Z,4.80
2019-03-25T08:41:37.804Z,4.90
2019-03-25T08:42:37.777Z,4.70
2019-03-25T08:43:37.777Z,4.90
2019-03-25T08:44:37.766Z,4.70
2019-03-25T08:45:37.742Z,4.80
2019-03-25T08:46:37.731Z,4.90
2019-03-25T08:47:37.718Z,4.40
2019-03-25T08:48:38.690Z,4.90
2019-03-25T08:49:37.697Z,4.70
2019-03-25T08:50:37.687Z,4.90
2019-03-25T08:51:37.677Z,4.60
2019-03-25T08:52:37.687Z,4.70
2019-03-25T08:53:37.680Z,4.60
2019-03-25T08:54:38.017Z,4.30
2019-03-25T08:55:37.630Z,4.60
2019-03-25T08:56:37.617Z,4.50
2019-03-25T08:57:37.608Z,4.50
2019-03-25T08:58:37.620Z,4.90
2019-03-25T08:59:37.593Z,4.60
2019-03-25T09:00:37.605Z,3.80
2019-03-25T09:01:37.584Z,4.20
2019-03-25T09:02:37.577Z,4.20
2019-03-25T09:03:37.586Z,3.80
2019-03-25T09:04:37.564Z,4.40
2019-03-25T09:05:37.541Z,4.40
2019-03-25T09:06:37.521Z,4.10
2019-03-25T09:07:37.502Z,4.10
2019-03-25T09:08:37.508Z,4.20
2019-03-25T09:09:38.179Z,3.90
2019-03-25T09:10:37.572Z,4.20
2019-03-25T09:11:38.165Z,4.40
2019-03-25T09:12:37.458Z,4.40
2019-03-25T09:13:37.448Z,4.00
2019-03-25T09:14:37.451Z,4.40
2019-03-25T09:15:37.437Z,4.10
2019-03-25T09:16:37.408Z,4.00
2019-03-25T09:17:37.420Z,4.10
2019-03-25T09:18:37.404Z,3.80
2019-03-25T09:19:37.410Z,3.70
2019-03-25T09:20:37.368Z,4.00
2019-03-25T09:21:37.359Z,3.80
2019-03-25T09:22:37.348Z,3.80
2019-03-25T09:23:37.345Z,3.80
2019-03-25T09:24:37.336Z,3.70
2019-03-25T09:25:37.343Z,3.90
2019-03-25T09:26:37.315Z,3.90
2019-03-25T09:27:37.301Z,3.90
2019-03-25T09:28:37.310Z,3.70
2019-03-25T09:29:37.275Z,3.50
2019-03-25T09:30:37.265Z,3.30
2019-03-25T09:31:37.311Z,3.50
2019-03-25T09:32:37.252Z,3.60
2019-03-25T09:33:37.251Z,3.60
2019-03-25T09:34:37.249Z,3.30
2019-03-25T09:35:37.218Z,3.50
2019-03-25T09:36:37.214Z,3.30
2019-03-25T09:37:37.196Z,3.70
2019-03-25T09:38:37.188Z,3.50
2019-03-25T09:39:37.196Z,3.30
2019-03-25T09:40:37.184Z,3.00
2019-03-25T09:41:37.157Z,3.30
2019-03-25T09:42:37.142Z,3.30
2019-03-25T09:43:37.133Z,3.30
2019-03-25T09:44:37.125Z,3.30
2019-03-25T09:45:37.132Z,2.90
2019-03-25T09:46:37.102Z,3.10
2019-03-25T09:47:37.903Z,3.20
2019-03-25T09:48:37.075Z,3.20
2019-03-25T09:49:37.072Z,2.80
2019-03-25T09:50:37.095Z,2.90
2019-03-25T09:51:37.045Z,3.10
2019-03-25T09:52:38.754Z,2.90
2019-03-25T09:53:37.027Z,3.00
2019-03-25T09:54:37.012Z,2.60
2019-03-25T09:55:37.042Z,2.10
2019-03-25T09:56:37.026Z,2.10
2019-03-25T09:57:36.988Z,1.90
2019-03-25T09:58:36.981Z,2.00
2019-03-25T09:59:36.964Z,1.90
2019-03-25T10:00:36.950Z,1.90
2019-03-25T10:01:36.955Z,2.00
2019-03-25T10:02:36.965Z,1.90
2019-03-25T10:03:36.934Z,1.80
2019-03-25T10:04:36.922Z,1.90
2019-03-25T10:05:36.900Z,2.20
2019-03-25T10:06:36.890Z,1.80
2019-03-25T10:07:36.905Z,2.10
2019-03-25T10:08:36.884Z,2.00
2019-03-25T10:09:36.867Z,2.60
2019-03-25T10:10:36.855Z,1.90
2019-03-25T10:11:36.839Z,2.30
2019-03-25T10:12:36.860Z,2.00
2019-03-25T10:13:36.825Z,2.20
2019-03-25T10:14:36.808Z,2.30
2019-03-25T10:15:36.807Z,1.90
2019-03-25T10:16:36.795Z,1.80
2019-03-25T10:17:36.795Z,2.00
2019-03-25T10:18:36.786Z,2.40
2019-03-25T10:19:36.747Z,1.90
2019-03-25T10:20:36.752Z,2.20
2019-03-25T10:21:36.730Z,2.30
2019-03-25T10:22:36.720Z,2.10
2019-03-25T10:23:36.801Z,2.20
2019-03-25T10:24:36.691Z,2.20
2019-03-25T10:25:36.682Z,2.20
2019-03-25T10:26:36.677Z,2.50
2019-03-25T10:27:36.689Z,2.60
2019-03-25T10:28:47.948Z,2.20
2019-03-25T10:29:37.666Z,2.40
2019-03-25T10:30:36.641Z,2.60
2019-03-25T10:31:36.626Z,2.50
2019-03-25T10:32:36.618Z,2.50
2019-03-25T10:33:36.623Z,2.00
2019-03-25T10:34:36.591Z,2.20
2019-03-25T10:35:36.590Z,2.10
2019-03-25T10:36:36.582Z,2.20
2019-03-25T10:37:36.567Z,2.40
2019-03-25T10:38:36.581Z,2.80
2019-03-25T10:39:36.548Z,2.10
2019-03-25T10:40:36.536Z,2.30
2019-03-25T10:41:38.479Z,2.20
2019-03-25T10:42:36.514Z,2.10
2019-03-25T10:43:36.517Z,2.40
2019-03-25T10:44:36.481Z,2.20
2019-03-25T10:45:36.470Z,2.40
2019-03-25T10:46:36.468Z,2.30
2019-03-25T10:47:36.454Z,2.30
2019-03-25T10:48:36.474Z,2.10
2019-03-25T10:49:36.437Z,2.30
2019-03-25T10:50:36.426Z,2.40
2019-03-25T10:51:36.410Z,2.20
2019-03-25T10:52:36.459Z,2.20
2019-03-25T10:53:36.428Z,2.50
2019-03-25T10:54:36.516Z,2.30
2019-03-25T10:55:36.369Z,2.00
2019-03-25T10:56:36.361Z,1.80
2019-03-25T10:57:36.348Z,1.90
2019-03-25T10:58:36.337Z,1.90
2019-03-25T10:59:36.355Z,1.90
2019-03-25T11:00:36.321Z,1.80
2019-03-25T11:01:36.310Z,2.00
2019-03-25T11:02:36.307Z,1.80
2019-03-25T11:03:36.291Z,1.70
2019-03-25T11:04:36.275Z,1.90
2019-03-25T11:05:36.314Z,2.00
2019-03-25T11:06:36.251Z,1.50
2019-03-25T11:07:36.393Z,1.70
2019-03-25T11:08:36.234Z,1.50
2019-03-25T11:09:36.220Z,1.60
2019-03-25T11:10:36.226Z,1.80
2019-03-25T11:11:36.231Z,1.70
2019-03-25T11:12:36.203Z,1.70
2019-03-25T11:13:36.205Z,1.70
2019-03-25T11:14:36.175Z,1.50
2019-03-25T11:15:36.168Z,1.70
2019-03-25T11:16:36.174Z,1.50
2019-03-25T11:17:36.138Z,1.60
2019-03-25T11:18:36.144Z,1.50
2019-03-25T11:19:36.136Z,1.60
2019-03-25T11:20:36.119Z,1.70
2019-03-25T11:21:36.128Z,2.00
2019-03-25T11:22:36.087Z,1.50
2019-03-25T11:23:36.084Z,1.50
2019-03-25T11:24:36.078Z,1.40
2019-03-25T11:25:36.090Z,1.60
2019-03-25T11:26:36.043Z,1.70
2019-03-25T11:27:36.026Z,1.50
2019-03-25T11:28:36.023Z,1.60
2019-03-25T11:29:36.010Z,1.60
2019-03-25T11:30:36.015Z,1.50
2019-03-25T11:31:36.024Z,1.60
2019-03-25T11:32:35.981Z,1.50
2019-03-25T11:33:35.975Z,1.70
2019-03-25T11:34:35.959Z,1.50
2019-03-25T11:35:35.945Z,1.70
2019-03-25T11:36:35.987Z,1.50
2019-03-25T11:37:35.924Z,1.40
2019-03-25T11:38:35.912Z,1.40
2019-03-25T11:39:35.914Z,1.10
2019-03-25T11:40:35.908Z,1.00
2019-03-25T11:41:35.902Z,1.00
2019-03-25T11:42:35.890Z,1.00
2019-03-25T11:43:35.888Z,1.00
2019-03-25T11:44:35.858Z,1.00
2019-03-25T11:45:35.863Z,1.00
2019-03-25T11:46:35.861Z,1.00
2019-03-25T11:47:35.825Z,1.00
2019-03-25T11:48:35.840Z,1.10
2019-03-25T11:49:35.798Z,1.00
2019-03-25T11:50:35.793Z,0.90
2019-03-25T11:51:35.780Z,0.90
2019-03-25T11:52:35.770Z,0.90
2019-03-25T11:53:35.766Z,1.20
2019-03-25T11:54:35.773Z,1.30
2019-03-25T11:55:35.736Z,1.00
2019-03-25T11:56:35.743Z,1.20
2019-03-25T11:57:35.717Z,1.20
2019-03-25T11:58:35.710Z,1.10
2019-03-25T11:59:35.705Z,1.30
2019-03-25T12:00:35.681Z,1.20
2019-03-25T12:01:35.694Z,1.20
2019-03-25T12:02:35.662Z,1.30
2019-03-25T12:03:35.669Z,1.30
2019-03-25T12:04:35.642Z,1.30
2019-03-25T12:05:35.638Z,1.30
2019-03-25T12:06:35.651Z,1.10
2019-03-25T12:07:35.615Z,1.30
2019-03-25T12:08:35.614Z,1.40
2019-03-25T12:09:35.590Z,1.20
2019-03-25T12:10:35.616Z,1.30
2019-03-25T12:11:35.578Z,1.30
2019-03-25T12:12:35.604Z,1.50
2019-03-25T12:13:35.557Z,1.30
2019-03-25T12:14:35.546Z,1.30
2019-03-25T12:15:35.530Z,1.20
2019-03-25T12:16:35.549Z,1.10
2019-03-25T12:17:35.542Z,1.00
2019-03-25T12:18:35.508Z,1.20
2019-03-25T12:19:35.488Z,1.10
2019-03-25T12:20:35.481Z,1.10
2019-03-25T12:21:35.464Z,1.10
2019-03-25T12:22:35.460Z,1.20
2019-03-25T12:23:35.471Z,1.00
2019-03-25T12:24:35.445Z,1.00
2019-03-25T12:25:35.431Z,0.90
2019-03-25T12:26:35.429Z,1.00
2019-03-25T12:27:35.400Z,1.40
2019-03-25T12:28:35.409Z,1.10
2019-03-25T12:29:35.400Z,1.20
2019-03-25T12:30:35.383Z,1.10
2019-03-25T12:31:35.363Z,1.20
2019-03-25T12:32:35.372Z,1.10
2019-03-25T12:33:35.370Z,1.30
2019-03-25T12:34:35.330Z,1.20
2019-03-25T12:35:35.333Z,0.90
2019-03-25T12:36:35.308Z,1.10
2019-03-25T12:37:35.305Z,1.20
2019-03-25T12:38:35.288Z,1.10
2019-03-25T12:39:35.453Z,1.00
2019-03-25T12:40:35.274Z,0.60
2019-03-25T12:41:35.261Z,0.60
2019-03-25T12:42:35.241Z,0.50
2019-03-25T12:43:35.245Z,0.60
2019-03-25T12:44:35.231Z,0.60
2019-03-25T12:45:35.233Z,0.70
2019-03-25T12:46:35.216Z,0.70
2019-03-25T12:47:35.201Z,0.70
2019-03-25T12:48:35.195Z,0.70
2019-03-25T12:49:35.179Z,0.80
2019-03-25T12:50:35.209Z,0.70
2019-03-25T12:51:35.150Z,0.70
2019-03-25T12:52:35.140Z,0.80
2019-03-25T12:53:35.146Z,0.90
2019-03-25T12:54:35.117Z,0.80
2019-03-25T12:55:35.121Z,0.80
2019-03-25T12:56:35.134Z,0.80
2019-03-25T12:57:35.098Z,0.90
2019-03-25T12:58:35.082Z,1.00
2019-03-25T12:59:41.174Z,0.90
2019-03-25T13:00:36.050Z,0.90
2019-03-25T13:01:35.059Z,1.00
2019-03-25T13:02:35.070Z,1.00
2019-03-25T13:03:35.044Z,0.90
2019-03-25T13:04:35.018Z,0.70
2019-03-25T13:05:35.016Z,0.90
2019-03-25T13:06:35.045Z,0.80
2019-03-25T13:07:35.030Z,0.90
2019-03-25T13:08:34.982Z,0.90
2019-03-25T13:09:34.971Z,0.80
2019-03-25T13:10:34.972Z,0.90
2019-03-25T13:11:34.962Z,1.00
2019-03-25T13:12:34.947Z,0.80
2019-03-25T13:13:34.960Z,0.90
2019-03-25T13:14:35.276Z,0.90
2019-03-25T13:15:34.933Z,0.80
2019-03-25T13:16:34.900Z,0.90
2019-03-25T13:17:34.879Z,0.90
2019-03-25T13:18:34.896Z,0.90